Time;durP1;ratioP1;P1;durP2;ratioP2;P2;SDS_P1;SDS_P2;PMS_P1;PMS_P2;Temp;Humidity;BMP_temperature;BMP_pressure;BME280_temperature;BME280_humidity;BME280_pressure;Samples;Min_cycle;Max_cycle;Signal;HPM_P1;HPM_P2
2021/01/29 00:00:45;;;;;;;;;;;;;;;0.58;79.26;99534.72;1867230;77;20154;-38
2021/01/29 00:03:15;;;;;;;;;;;;;;;0.56;79.02;99538.14;1867275;77;20130;-40
2021/01/29 00:05:51;;;;;;;;;;;;;;;0.54;78.40;99541.13;1867176;77;20134;-39
2021/01/29 00:08:19;;;;;;;;;;;;;;;0.55;78.19;99525.66;1867531;77;20134;-39
2021/01/29 00:10:47;;;;;;;;;;;;;;;0.53;78.04;99536.39;1867276;77;20139;-39
2021/01/29 00:13:15;;;;;;;;;;;;;;;0.55;77.96;99544.14;1867451;77;20143;-40
2021/01/29 00:15:43;;;;;;;;;;;;;;;0.52;78.02;99524.81;1867301;77;20217;-40
2021/01/29 00:18:12;;;;;;;;;;;;;;;0.51;78.29;99528.23;1867312;77;20237;-39
2021/01/29 00:20:40;;;;;;;;;;;;;;;0.49;78.75;99527.36;1867546;77;20122;-39
2021/01/29 00:23:08;;;;;;;;;;;;;;;0.46;79.73;99520.91;1867267;77;20139;-40
2021/01/29 00:25:38;;;;;;;;;;;;;;;0.46;80.35;99528.65;1867242;77;20158;-40
2021/01/29 00:28:07;;;;;;;;;;;;;;;0.45;80.91;99527.78;1867557;77;20138;-39
2021/01/29 00:30:35;;;;;;;;;;;;;;;0.47;81.23;99523.89;1867390;77;20459;-40
2021/01/29 00:33:04;;;;;;;;;;;;;;;0.52;80.60;99525.67;1867534;77;20143;-40
2021/01/29 00:35:33;;;;;;;;;;;;;;;0.58;80.25;99535.15;1867253;77;20162;-39
2021/01/29 00:38:01;;;;;;;;;;;;;;;0.59;80.37;99530.43;1867589;77;20186;-40
2021/01/29 00:40:28;;;;;;;;;;;;;;;0.58;80.44;99529.98;1867507;77;20534;-40
2021/01/29 00:42:58;;;;;;;;;;;;;;;0.54;80.57;99530.81;1867645;77;20139;-38
2021/01/29 00:45:28;;;;;;;;;;;;;;;0.52;80.62;99528.67;1867203;77;20518;-51
2021/01/29 00:47:55;;;;;;;;;;;;;;;0.50;80.28;99529.09;1867502;77;20277;-39
2021/01/29 00:50:24;;;;;;;;;;;;;;;0.49;80.14;99525.64;1867451;77;20504;-39
2021/01/29 00:52:52;;;;;;;;;;;;;;;0.50;79.79;99538.11;1867248;77;20139;-41
2021/01/29 00:55:20;;;;;;;;;;;;;;;0.48;79.56;99529.07;1867297;77;20424;-40
2021/01/29 00:57:56;;;;;;;;;;;;;;;0.49;79.31;99518.33;1841155;75;20239;-39
2021/01/29 01:00:30;;;;;;;;;;;;;;;0.52;78.94;99508.05;1859005;75;20159;-40
2021/01/29 01:03:00;;;;;;;;;;;;;;;0.55;78.50;99514.48;1902274;75;20155;-39
2021/01/29 01:05:28;;;;;;;;;;;;;;;0.57;78.45;99511.50;1884732;75;20381;-40
2021/01/29 01:07:56;;;;;;;;;;;;;;;0.57;78.55;99520.53;1867525;77;20372;-39
2021/01/29 01:10:37;;;;;;;;;;;;;;;0.56;78.97;99523.95;1844312;77;20157;-39
2021/01/29 01:13:24;;;;;;;;;;;;;;;0.54;79.45;99512.33;1867516;77;20162;-39
2021/01/29 01:16:10;;;;;;;;;;;;;;;0.53;80.05;99515.77;1867219;77;20142;-39
2021/01/29 01:18:38;;;;;;;;;;;;;;;0.52;80.36;99512.78;1867600;77;20546;-39
2021/01/29 01:21:10;;;;;;;;;;;;;;;0.52;80.49;99505.47;1866687;77;20186;-39
2021/01/29 01:23:39;;;;;;;;;;;;;;;0.52;80.49;99503.75;1867488;77;20193;-40
2021/01/29 01:26:07;;;;;;;;;;;;;;;0.51;80.56;99500.73;1867292;77;20217;-38
2021/01/29 01:28:37;;;;;;;;;;;;;;;0.48;80.75;99500.70;1845883;77;20135;-40
2021/01/29 01:31:06;;;;;;;;;;;;;;;0.44;80.88;99492.54;1866726;77;20222;-38
2021/01/29 01:33:36;;;;;;;;;;;;;;;0.40;80.91;99509.69;1866778;77;20142;-40
2021/01/29 01:36:07;;;;;;;;;;;;;;;0.38;80.92;99488.22;1865063;77;20158;-39
2021/01/29 01:38:36;;;;;;;;;;;;;;;0.37;81.01;99510.98;1867020;77;20142;-39
2021/01/29 01:41:04;;;;;;;;;;;;;;;0.34;81.00;99492.91;1867137;77;20185;-41
2021/01/29 01:43:38;;;;;;;;;;;;;;;0.33;80.90;99497.63;1865598;77;20157;-39
2021/01/29 01:46:17;;;;;;;;;;;;;;;0.34;80.64;99481.30;1855419;77;20218;-39
2021/01/29 01:49:12;;;;;;;;;;;;;;;0.35;80.50;99491.19;1867113;75;20168;-38
2021/01/29 01:51:51;;;;;;;;;;;;;;;0.34;80.37;99488.17;1867196;77;20197;-39
2021/01/29 01:54:39;;;;;;;;;;;;;;;0.33;80.27;99491.60;1876039;75;20191;-39
2021/01/29 01:57:07;;;;;;;;;;;;;;;0.29;80.27;99491.17;1867228;77;20146;-40
2021/01/29 01:59:47;;;;;;;;;;;;;;;0.27;80.43;99478.27;1862658;77;20206;-40
2021/01/29 02:02:29;;;;;;;;;;;;;;;0.24;80.60;99497.59;1842991;77;20230;-38
2021/01/29 02:05:21;;;;;;;;;;;;;;;0.22;80.59;99503.16;1840278;77;20151;-39
2021/01/29 02:08:12;;;;;;;;;;;;;;;0.25;80.50;99505.77;1867238;77;20134;-39
2021/01/29 02:10:50;;;;;;;;;;;;;;;0.29;80.29;99501.05;1867099;77;20182;-39
2021/01/29 02:13:20;;;;;;;;;;;;;;;0.34;79.98;99512.66;1866059;77;20166;-40
2021/01/29 02:15:51;;;;;;;;;;;;;;;0.37;79.83;99513.98;1866014;77;20166;-39
2021/01/29 02:18:32;;;;;;;;;;;;;;;0.40;79.69;99523.00;1867463;77;20201;-39
2021/01/29 02:21:42;;;;;;;;;;;;;;;0.44;79.65;99525.19;1849762;77;20162;-39
2021/01/29 02:27:12;;;;;;;;;;;;;;;0.53;79.27;99529.08;1904523;74;20441;-40
2021/01/29 02:29:49;;;;;;;;;;;;;;;0.51;79.16;99519.21;1884365;75;20160;-38
2021/01/29 02:32:27;;;;;;;;;;;;;;;0.52;79.00;99536.41;1903326;75;20468;-40
2021/01/29 02:35:23;;;;;;;;;;;;;;;0.52;78.58;99527.38;1902415;75;20117;-38
2021/01/29 02:38:29;;;;;;;;;;;;;;;0.55;78.54;99533.83;1903095;75;20148;-39
2021/01/29 02:41:36;;;;;;;;;;;;;;;0.55;78.79;99532.54;1903169;75;20184;-39
2021/01/29 02:44:33;;;;;;;;;;;;;;;0.55;79.11;99533.83;1902225;75;20124;-42
2021/01/29 02:47:27;;;;;;;;;;;;;;;0.52;79.54;99524.38;1902946;75;20184;-39
2021/01/29 02:50:28;;;;;;;;;;;;;;;0.50;79.83;99531.66;1903176;75;20147;-39
2021/01/29 02:53:39;;;;;;;;;;;;;;;0.50;79.89;99540.69;1903040;75;20219;-38
2021/01/29 02:56:34;;;;;;;;;;;;;;;0.49;79.89;99528.64;1903031;75;20172;-39
2021/01/29 02:59:25;;;;;;;;;;;;;;;0.48;79.93;99541.09;1900198;75;20240;-40
2021/01/29 03:02:00;;;;;;;;;;;;;;;0.47;79.96;99542.81;1872632;75;20164;-40
2021/01/29 03:04:52;;;;;;;;;;;;;;;0.49;79.95;99546.69;1900978;75;20278;-40
2021/01/29 03:07:26;;;;;;;;;;;;;;;0.46;79.94;99546.70;1903320;75;20386;-39
2021/01/29 03:10:35;;;;;;;;;;;;;;;0.46;79.71;99552.68;1903009;75;20136;-39
2021/01/29 03:13:28;;;;;;;;;;;;;;;0.48;79.62;99547.55;1903352;75;20222;-40
2021/01/29 03:16:22;;;;;;;;;;;;;;;0.47;79.66;99545.81;1903249;75;20159;-39
2021/01/29 03:19:12;;;;;;;;;;;;;;;0.48;79.69;99555.28;1903155;75;20172;-38
2021/01/29 03:22:10;;;;;;;;;;;;;;;0.46;79.73;99542.83;1903083;75;20128;-40
2021/01/29 03:25:03;;;;;;;;;;;;;;;0.45;79.91;99545.83;1903216;75;20136;-39
2021/01/29 03:27:54;;;;;;;;;;;;;;;0.44;79.97;99550.55;1903281;75;20148;-40
2021/01/29 03:30:43;;;;;;;;;;;;;;;0.43;79.70;99555.69;1827992;78;20297;-41
2021/01/29 03:33:32;;;;;;;;;;;;;;;0.43;79.53;99551.82;1805355;78;20413;-39
2021/01/29 03:36:14;;;;;;;;;;;;;;;0.44;79.57;99565.16;1788280;80;20155;-39
2021/01/29 03:39:09;;;;;;;;;;;;;;;0.42;79.53;99569.00;1902839;75;20120;-39
2021/01/29 03:42:10;;;;;;;;;;;;;;;0.45;79.07;99573.33;1902112;75;20231;-39
2021/01/29 03:45:15;;;;;;;;;;;;;;;0.47;78.96;99567.73;1867198;77;20147;-39
2021/01/29 03:48:11;;;;;;;;;;;;;;;0.44;79.09;99549.69;1867886;75;20213;-45
2021/01/29 03:51:16;;;;;;;;;;;;;;;0.43;79.06;99564.28;1867326;75;20120;-40
2021/01/29 03:54:20;;;;;;;;;;;;;;;0.44;78.63;99581.48;1867585;77;20183;-39
2021/01/29 03:57:25;;;;;;;;;;;;;;;0.46;78.15;99582.33;1867450;77;20162;-39
2021/01/29 04:00:21;;;;;;;;;;;;;;;0.44;78.07;99549.26;1872519;75;20228;-40
2021/01/29 04:03:15;;;;;;;;;;;;;;;0.42;77.91;99590.91;1902329;75;20175;-38
2021/01/29 04:06:20;;;;;;;;;;;;;;;0.39;78.10;99593.03;1902303;75;20184;-40
2021/01/29 04:09:12;;;;;;;;;;;;;;;0.36;78.36;99599.91;1902434;75;20140;-39
2021/01/29 04:12:00;;;;;;;;;;;;;;;0.31;78.84;99593.44;1902528;75;20183;-40
2021/01/29 04:14:56;;;;;;;;;;;;;;;0.26;79.32;99607.98;1886285;75;20287;-38
2021/01/29 04:17:29;;;;;;;;;;;;;;;0.21;79.90;99601.94;1871711;75;20191;-40
2021/01/29 04:20:13;;;;;;;;;;;;;;;0.19;80.30;99599.80;1876019;75;20124;-39
2021/01/29 04:22:41;;;;;;;;;;;;;;;0.16;80.67;99599.77;1867582;77;20134;-39
2021/01/29 04:25:18;;;;;;;;;;;;;;;0.13;80.78;99597.61;1867347;77;20428;-41
2021/01/29 04:27:47;;;;;;;;;;;;;;;0.07;80.86;99604.84;1867428;77;20136;-39
2021/01/29 04:30:24;;;;;;;;;;;;;;;-0.01;80.98;99602.23;1866957;77;20202;-40
2021/01/29 04:33:05;;;;;;;;;;;;;;;-0.03;81.19;99601.77;1867202;77;20452;-41
2021/01/29 04:35:58;;;;;;;;;;;;;;;-0.03;81.61;99609.50;1887736;74;20562;-40
2021/01/29 04:38:38;;;;;;;;;;;;;;;-0.13;81.74;99607.70;1868262;76;20156;-41
2021/01/29 04:41:34;;;;;;;;;;;;;;;-0.19;81.88;99609.78;1887095;75;20434;-38
2021/01/29 04:44:26;;;;;;;;;;;;;;;-0.24;82.10;99602.86;1903230;75;20199;-40
2021/01/29 04:47:09;;;;;;;;;;;;;;;-0.28;82.18;99612.71;1883000;75;20476;-40
2021/01/29 04:50:15;;;;;;;;;;;;;;;-0.32;82.06;99613.51;1863040;76;20551;-40
2021/01/29 04:52:58;;;;;;;;;;;;;;;-0.34;81.86;99612.23;1868013;75;20130;-39
2021/01/29 04:55:44;;;;;;;;;;;;;;;-0.41;81.75;99622.90;1867973;77;20120;-40
2021/01/29 04:58:15;;;;;;;;;;;;;;;-0.44;81.78;99622.85;1868069;75;20442;-45
2021/01/29 05:01:02;;;;;;;;;;;;;;;-0.49;82.16;99618.51;1843651;75;20190;-40
2021/01/29 05:04:21;;;;;;;;;;;;;;;-0.51;82.66;99622.34;1868401;75;20196;-40
2021/01/29 05:07:17;;;;;;;;;;;;;;;-0.55;83.33;99633.47;1867888;77;20123;-39
2021/01/29 05:10:31;;;;;;;;;;;;;;;-0.58;84.01;99638.99;1873065;75;20287;-40
2021/01/29 05:13:20;;;;;;;;;;;;;;;-0.60;84.27;99649.72;1887509;75;20285;-39
2021/01/29 05:16:17;;;;;;;;;;;;;;;-0.59;84.34;99656.14;1871193;75;20178;-39
2021/01/29 05:19:22;;;;;;;;;;;;;;;-0.59;84.45;99666.89;1902844;75;20120;-41
2021/01/29 05:22:15;;;;;;;;;;;;;;;-0.62;84.52;99661.28;1872573;75;20601;-40
2021/01/29 05:25:04;;;;;;;;;;;;;;;-0.63;84.62;99671.55;1867234;76;20153;-39
2021/01/29 05:27:55;;;;;;;;;;;;;;;-0.66;84.82;99683.98;1867714;77;20582;-40
2021/01/29 05:30:33;;;;;;;;;;;;;;;-0.67;84.94;99678.38;1870570;75;20193;-41
2021/01/29 05:33:32;;;;;;;;;;;;;;;-0.67;84.99;99642.35;1868962;77;20150;-41
2021/01/29 05:36:13;;;;;;;;;;;;;;;-0.66;84.95;99676.25;1878124;75;20126;-41
2021/01/29 05:38:52;;;;;;;;;;;;;;;-0.66;84.92;99692.98;1879673;75;20281;-40
2021/01/29 05:41:33;;;;;;;;;;;;;;;-0.63;84.74;99685.28;1869815;75;20182;-41
2021/01/29 05:44:06;;;;;;;;;;;;;;;-0.60;84.55;99681.89;1869492;75;20182;-41
2021/01/29 05:46:38;;;;;;;;;;;;;;;-0.55;84.35;99681.52;1872475;75;20313;-41
2021/01/29 05:49:23;;;;;;;;;;;;;;;-0.52;84.28;99689.25;1880284;75;20163;-40
2021/01/29 05:52:11;;;;;;;;;;;;;;;-0.47;84.12;99676.91;1870032;75;20210;-41
2021/01/29 05:55:02;;;;;;;;;;;;;;;-0.41;83.89;99660.66;1866989;75;20178;-41
2021/01/29 05:57:33;;;;;;;;;;;;;;;-0.35;83.41;99686.46;1868805;75;20199;-42
2021/01/29 06:00:20;;;;;;;;;;;;;;;-0.30;83.16;99686.50;1868649;75;20218;-43
2021/01/29 06:02:57;;;;;;;;;;;;;;;-0.24;82.85;99683.98;1869409;75;20277;-42
2021/01/29 06:05:28;;;;;;;;;;;;;;;-0.19;82.53;99701.20;1872149;75;20185;-40
2021/01/29 06:08:21;;;;;;;;;;;;;;;-0.11;81.94;99695.72;1872334;75;20662;-42
2021/01/29 06:11:03;;;;;;;;;;;;;;;-0.04;81.54;99691.06;1853597;75;20192;-41
2021/01/29 06:13:53;;;;;;;;;;;;;;;0.04;80.71;99701.45;1775103;77;20603;-41
2021/01/29 06:16:48;;;;;;;;;;;;;;;0.10;80.58;99706.66;1871226;75;20124;-42
2021/01/29 06:19:43;;;;;;;;;;;;;;;0.19;80.42;99704.17;1872330;75;20266;-43
2021/01/29 06:22:21;;;;;;;;;;;;;;;0.27;80.19;99682.31;1869963;75;20521;-41
2021/01/29 06:27:11;;;;;;;;;;;;;;;0.38;79.78;99706.06;1898469;74;20120;-41
2021/01/29 06:29:49;;;;;;;;;;;;;;;0.39;79.78;99719.81;1874975;75;20253;-41
2021/01/29 06:32:44;;;;;;;;;;;;;;;0.44;79.21;99713.39;1871244;75;20171;-41
2021/01/29 06:35:34;;;;;;;;;;;;;;;0.49;78.80;99719.02;1875321;75;20194;-41
2021/01/29 06:38:14;;;;;;;;;;;;;;;0.50;78.45;99725.91;1869877;75;20181;-42
2021/01/29 06:41:06;;;;;;;;;;;;;;;0.49;78.14;99715.16;1871599;75;20180;-43
2021/01/29 06:43:43;;;;;;;;;;;;;;;0.51;77.82;99717.75;1869086;75;20205;-40
2021/01/29 06:46:27;;;;;;;;;;;;;;;0.52;77.52;99716.91;1822553;75;20221;-42
2021/01/29 06:49:34;;;;;;;;;;;;;;;0.51;77.10;99728.94;1869399;75;20225;-42
2021/01/29 06:52:17;;;;;;;;;;;;;;;0.51;76.83;99730.65;1876927;75;20412;-41
2021/01/29 06:55:03;;;;;;;;;;;;;;;0.50;76.70;99721.17;1825539;75;20201;-42
2021/01/29 06:57:41;;;;;;;;;;;;;;;0.53;76.61;99730.20;1871102;75;20276;-42
2021/01/29 07:00:26;;;;;;;;;;;;;;;0.54;76.55;99713.47;1853049;75;20230;-41
2021/01/29 07:03:15;;;;;;;;;;;;;;;0.56;75.97;99723.80;1842979;77;20233;-43
2021/01/29 07:06:04;;;;;;;;;;;;;;;0.60;75.82;99734.56;1836722;75;20161;-42
2021/01/29 07:08:49;;;;;;;;;;;;;;;0.67;75.70;99734.63;1846929;75;20192;-42
2021/01/29 07:11:37;;;;;;;;;;;;;;;0.74;75.56;99732.53;1858177;75;20203;-44
2021/01/29 07:14:20;;;;;;;;;;;;;;;0.84;75.09;99737.34;1833588;77;20122;-43
2021/01/29 07:17:29;;;;;;;;;;;;;;;0.98;74.60;99734.44;1830089;75;20229;-43
2021/01/29 07:20:11;;;;;;;;;;;;;;;1.12;74.49;99740.52;1853141;75;20609;-43
2021/01/29 07:22:51;;;;;;;;;;;;;;;1.25;74.12;99731.58;1876060;75;20182;-42
2021/01/29 07:25:34;;;;;;;;;;;;;;;1.32;73.67;99734.17;1876714;75;20195;-44
2021/01/29 07:28:17;;;;;;;;;;;;;;;1.34;73.42;99751.83;1872748;75;20492;-43
2021/01/29 07:30:48;;;;;;;;;;;;;;;1.39;73.58;99735.06;1883820;75;20171;-43
2021/01/29 07:33:28;;;;;;;;;;;;;;;1.37;73.45;99726.05;1870652;75;20287;-41
2021/01/29 07:36:28;;;;;;;;;;;;;;;1.40;73.17;99747.13;1875589;75;20216;-44
2021/01/29 07:39:33;;;;;;;;;;;;;;;1.39;73.18;99747.97;1868940;75;20168;-42
2021/01/29 07:42:21;;;;;;;;;;;;;;;1.44;73.25;99752.75;1867937;75;20137;-41
2021/01/29 07:45:09;;;;;;;;;;;;;;;1.47;73.37;99743.72;1866504;75;20468;-41
2021/01/29 07:48:14;;;;;;;;;;;;;;;1.55;73.54;99724.82;1871661;75;20156;-43
2021/01/29 07:50:46;;;;;;;;;;;;;;;1.60;73.10;99741.62;1867314;75;20400;-42
2021/01/29 07:53:38;;;;;;;;;;;;;;;1.59;72.88;99739.89;1871476;75;20564;-43
2021/01/29 07:56:29;;;;;;;;;;;;;;;1.56;72.91;99744.63;1862131;75;20205;-44
2021/01/29 07:59:20;;;;;;;;;;;;;;;1.67;72.92;99746.38;1866442;75;20296;-43
2021/01/29 08:02:15;;;;;;;;;;;;;;;1.76;72.87;99747.72;1873544;75;20190;-42
2021/01/29 08:05:05;;;;;;;;;;;;;;;1.72;72.77;99741.66;1875056;75;20324;-43
2021/01/29 08:07:39;;;;;;;;;;;;;;;1.76;72.71;99742.13;1873520;75;20178;-42
2021/01/29 08:10:13;;;;;;;;;;;;;;;1.79;72.63;99749.86;1870441;75;20181;-43
2021/01/29 08:12:44;;;;;;;;;;;;;;;1.82;72.86;99755.06;1871812;75;20186;-41
2021/01/29 08:15:31;;;;;;;;;;;;;;;2.04;72.88;99753.38;1868248;75;20201;-52
2021/01/29 08:18:30;;;;;;;;;;;;;;;2.29;71.98;99748.71;1867044;75;20184;-42
2021/01/29 08:21:25;;;;;;;;;;;;;;;2.27;71.11;99753.44;1801676;78;20196;-42
2021/01/29 08:24:14;;;;;;;;;;;;;;;2.15;70.90;99742.65;1808407;78;20536;-40
2021/01/29 08:27:18;;;;;;;;;;;;;;;2.30;70.97;99750.41;1829250;77;20132;-43
2021/01/29 08:30:27;;;;;;;;;;;;;;;2.54;69.85;99756.48;1809214;77;20338;-42
2021/01/29 08:33:34;;;;;;;;;;;;;;;2.57;68.98;99762.50;1818590;77;20175;-43
2021/01/29 08:36:12;;;;;;;;;;;;;;;2.28;69.09;99760.34;1819520;78;20208;-43
2021/01/29 08:39:07;;;;;;;;;;;;;;;2.10;69.54;99759.02;1838794;77;20284;-43
2021/01/29 08:41:53;;;;;;;;;;;;;;;1.95;70.16;99746.91;1832247;77;20181;-43
2021/01/29 08:44:47;;;;;;;;;;;;;;;1.87;70.48;99753.77;1842408;77;20178;-43
2021/01/29 08:47:33;;;;;;;;;;;;;;;1.80;70.68;99747.72;1832667;77;20193;-43
2021/01/29 08:50:11;;;;;;;;;;;;;;;1.86;71.07;99746.45;1832500;77;20366;-43
2021/01/29 08:52:58;;;;;;;;;;;;;;;1.96;70.55;99752.09;1810917;78;20173;-45
2021/01/29 08:55:29;;;;;;;;;;;;;;;1.96;70.44;99751.23;1817414;77;20194;-43
2021/01/29 08:58:16;;;;;;;;;;;;;;;1.84;70.16;99753.32;1833487;77;20198;-44
2021/01/29 09:00:44;;;;;;;;;;;;;;;1.72;70.94;99749.41;1792822;78;20155;-44
2021/01/29 09:03:24;;;;;;;;;;;;;;;1.62;71.96;99752.83;1814550;78;20143;-43
2021/01/29 09:06:10;;;;;;;;;;;;;;;1.52;72.68;99746.75;1808881;78;20208;-43
2021/01/29 09:08:38;;;;;;;;;;;;;;;1.42;73.66;99744.13;1825231;77;20189;-43
2021/01/29 09:11:12;;;;;;;;;;;;;;;1.31;74.61;99736.77;1813703;77;20216;-42
2021/01/29 09:13:41;;;;;;;;;;;;;;;1.25;75.57;99738.03;1808246;78;20179;-43
2021/01/29 09:16:25;;;;;;;;;;;;;;;1.18;76.41;99726.34;1834331;77;20192;-43
2021/01/29 09:19:02;;;;;;;;;;;;;;;1.15;77.60;99722.91;1811876;78;20460;-44
2021/01/29 09:21:57;;;;;;;;;;;;;;;1.04;79.11;99743.50;1830694;77;20236;-43
2021/01/29 09:24:47;;;;;;;;;;;;;;;0.91;80.53;99739.54;1832793;77;20200;-42
2021/01/29 09:27:41;;;;;;;;;;;;;;;0.75;82.46;99743.72;1810740;78;20200;-43
2021/01/29 09:30:15;;;;;;;;;;;;;;;0.60;84.45;99744.88;1829603;77;20177;-43
2021/01/29 09:33:00;;;;;;;;;;;;;;;0.44;85.93;99741.76;1829102;78;20374;-44
2021/01/29 09:35:42;;;;;;;;;;;;;;;0.34;87.35;99745.95;1835944;77;20182;-44
2021/01/29 09:38:12;;;;;;;;;;;;;;;0.22;88.88;99729.09;1841958;77;20447;-45
2021/01/29 09:40:58;;;;;;;;;;;;;;;0.10;90.19;99729.84;1848984;77;20166;-44
2021/01/29 09:43:35;;;;;;;;;;;;;;;0.00;91.51;99732.74;1816331;77;20446;-45
2021/01/29 09:46:03;;;;;;;;;;;;;;;-0.08;92.65;99724.52;1838172;77;20213;-44
2021/01/29 09:48:31;;;;;;;;;;;;;;;-0.15;93.76;99715.87;1833743;77;20192;-45
2021/01/29 09:51:05;;;;;;;;;;;;;;;-0.18;94.66;99714.53;1839315;77;20522;-44
2021/01/29 09:53:37;;;;;;;;;;;;;;;-0.20;95.41;99715.38;1852494;77;20207;-42
2021/01/29 09:56:14;;;;;;;;;;;;;;;-0.21;96.08;99711.08;1834252;77;20172;-42
2021/01/29 09:59:07;;;;;;;;;;;;;;;-0.21;96.70;99712.36;1834348;77;20211;-43
2021/01/29 10:01:36;;;;;;;;;;;;;;;-0.23;97.34;99708.90;1838028;77;20438;-42
2021/01/29 10:04:22;;;;;;;;;;;;;;;-0.27;97.83;99709.30;1834757;77;20570;-44
2021/01/29 10:06:54;;;;;;;;;;;;;;;-0.28;98.20;99708.86;1832008;77;20414;-43
2021/01/29 10:09:29;;;;;;;;;;;;;;;-0.35;98.67;99701.91;1823107;77;20300;-43
2021/01/29 10:12:15;;;;;;;;;;;;;;;-0.42;98.92;99703.55;1837573;77;20228;-44
2021/01/29 10:14:55;;;;;;;;;;;;;;;-0.46;99.11;99696.63;1835990;77;20237;-41
2021/01/29 10:17:27;;;;;;;;;;;;;;;-0.49;99.30;99695.73;1835261;77;20216;-44
2021/01/29 10:20:07;;;;;;;;;;;;;;;-0.50;99.43;99695.30;1834692;77;20204;-44
2021/01/29 10:22:48;;;;;;;;;;;;;;;-0.53;99.51;99688.84;1832164;77;20187;-44
2021/01/29 10:26:56;;;;;;;;;;;;;;;-0.51;99.77;99681.55;1887620;74;20307;-45
2021/01/29 10:29:24;;;;;;;;;;;;;;;-0.55;99.93;99679.80;1874492;74;20219;-44
2021/01/29 10:32:03;;;;;;;;;;;;;;;-0.55;100.00;99676.37;1859010;75;20195;-44
2021/01/29 10:34:48;;;;;;;;;;;;;;;-0.57;100.00;99675.05;1878558;74;20481;-50
2021/01/29 10:37:20;;;;;;;;;;;;;;;-0.56;100.00;99672.92;1856536;75;20187;-43
2021/01/29 10:39:54;;;;;;;;;;;;;;;-0.48;100.00;99671.73;1888569;75;20166;-44
2021/01/29 10:42:26;;;;;;;;;;;;;;;-0.43;100.00;99671.34;1880543;74;20187;-43
2021/01/29 10:44:54;;;;;;;;;;;;;;;-0.36;100.00;99674.85;1886907;74;20198;-43
2021/01/29 10:47:25;;;;;;;;;;;;;;;-0.29;100.00;99666.34;1878178;74;20156;-44
2021/01/29 10:50:18;;;;;;;;;;;;;;;-0.17;100.00;99664.75;1874499;74;20149;-41
2021/01/29 10:53:07;;;;;;;;;;;;;;;-0.06;100.00;99668.28;1889786;74;20265;-49
2021/01/29 10:55:42;;;;;;;;;;;;;;;0.06;100.00;99666.69;1877440;74;20220;-41
2021/01/29 10:58:36;;;;;;;;;;;;;;;0.14;100.00;99663.30;1853879;74;20298;-41
2021/01/29 11:01:08;;;;;;;;;;;;;;;0.26;100.00;99661.28;1892587;74;20126;-43
2021/01/29 11:04:13;;;;;;;;;;;;;;;0.37;99.56;99651.48;1876752;74;20194;-42
2021/01/29 11:06:45;;;;;;;;;;;;;;;0.45;99.02;99647.67;1879130;74;20158;-41
2021/01/29 11:09:19;;;;;;;;;;;;;;;0.48;98.36;99645.52;1885196;74;20307;-42
2021/01/29 11:12:04;;;;;;;;;;;;;;;0.48;97.83;99647.67;1866819;74;20316;-42
2021/01/29 11:14:35;;;;;;;;;;;;;;;0.50;97.58;99642.53;1878584;74;20174;-42
2021/01/29 11:17:23;;;;;;;;;;;;;;;0.51;97.33;99641.69;1873020;74;20265;-42
2021/01/29 11:19:53;;;;;;;;;;;;;;;0.50;97.19;99644.69;1885812;74;20141;-40
2021/01/29 11:22:36;;;;;;;;;;;;;;;0.57;97.28;99636.56;1881261;74;20694;-41
2021/01/29 11:25:27;;;;;;;;;;;;;;;0.68;97.47;99641.35;1881937;74;20295;-42
2021/01/29 11:28:18;;;;;;;;;;;;;;;0.84;97.47;99644.47;1883913;74;20475;-41
2021/01/29 11:30:58;;;;;;;;;;;;;;;0.88;97.29;99635.87;1877341;75;20192;-41
2021/01/29 11:33:30;;;;;;;;;;;;;;;0.87;97.21;99636.73;1866427;76;20148;-42
2021/01/29 11:36:08;;;;;;;;;;;;;;;0.92;97.23;99640.19;1880935;74;20203;-42
2021/01/29 11:39:03;;;;;;;;;;;;;;;0.94;97.21;99633.75;1883175;74;20181;-42
2021/01/29 11:41:46;;;;;;;;;;;;;;;0.96;97.24;99634.63;1878129;74;20201;-41
2021/01/29 11:44:56;;;;;;;;;;;;;;;0.96;97.21;99632.05;1880717;74;20180;-39
2021/01/29 11:47:32;;;;;;;;;;;;;;;0.91;97.32;99624.30;1853111;75;20128;-41
2021/01/29 11:50:15;;;;;;;;;;;;;;;0.93;97.52;99615.25;1874282;74;20243;-42
2021/01/29 11:52:56;;;;;;;;;;;;;;;0.97;97.67;99615.30;1885466;74;20212;-41
2021/01/29 11:55:29;;;;;;;;;;;;;;;1.02;97.86;99621.33;1882463;74;20203;-43
2021/01/29 11:58:13;;;;;;;;;;;;;;;1.12;97.98;99617.91;1882570;74;20184;-42
2021/01/29 12:00:57;;;;;;;;;;;;;;;1.21;97.79;99623.55;1878194;74;20277;-42
2021/01/29 12:03:38;;;;;;;;;;;;;;;1.22;97.60;99621.83;1888001;74;20166;-42
2021/01/29 12:06:25;;;;;;;;;;;;;;;1.25;97.44;99608.95;1878175;74;20194;-40
2021/01/29 12:09:06;;;;;;;;;;;;;;;1.27;97.26;99617.11;1884558;74;20182;-43
2021/01/29 12:11:38;;;;;;;;;;;;;;;1.31;97.05;99612.41;1879770;74;20275;-40
2021/01/29 12:14:21;;;;;;;;;;;;;;;1.35;96.82;99606.81;1887347;74;20372;-39
2021/01/29 12:17:01;;;;;;;;;;;;;;;1.38;96.54;99599.09;1881519;75;20184;-41
2021/01/29 12:19:35;;;;;;;;;;;;;;;1.41;96.12;99597.36;1885836;74;20271;-40
2021/01/29 12:22:26;;;;;;;;;;;;;;;1.37;95.64;99585.31;1877205;74;20271;-43
2021/01/29 12:25:31;;;;;;;;;;;;;;;1.32;95.26;99592.16;1880461;74;20453;-41
2021/01/29 12:28:12;;;;;;;;;;;;;;;1.28;94.86;99583.98;1876287;74;20207;-41
2021/01/29 12:30:43;;;;;;;;;;;;;;;1.26;94.32;99584.41;1876761;74;20184;-41
2021/01/29 12:33:14;;;;;;;;;;;;;;;1.27;94.04;99583.98;1822897;77;20142;-39
2021/01/29 12:35:46;;;;;;;;;;;;;;;1.26;93.87;99580.95;1774581;78;20208;-41
2021/01/29 12:38:38;;;;;;;;;;;;;;;1.26;93.73;99585.69;1820742;78;20237;-40
2021/01/29 12:41:26;;;;;;;;;;;;;;;1.28;93.62;99585.70;1791023;77;20158;-40
2021/01/29 12:44:22;;;;;;;;;;;;;;;1.31;93.41;99581.43;1795951;77;20133;-38
2021/01/29 12:47:15;;;;;;;;;;;;;;;1.33;93.16;99583.56;1747142;77;20456;-40
2021/01/29 12:50:20;;;;;;;;;;;;;;;1.36;92.75;99587.45;1818753;77;20196;-41
2021/01/29 12:52:53;;;;;;;;;;;;;;;1.40;92.35;99577.98;1827064;77;20176;-41
2021/01/29 12:55:31;;;;;;;;;;;;;;;1.40;91.86;99585.30;1830675;77;20229;-40
2021/01/29 12:58:09;;;;;;;;;;;;;;;1.43;91.69;99583.17;1828765;77;20300;-40
2021/01/29 13:00:38;;;;;;;;;;;;;;;1.43;91.55;99576.72;1830905;77;20511;-40
2021/01/29 13:03:17;;;;;;;;;;;;;;;1.45;91.33;99577.55;1823087;77;20275;-41
2021/01/29 13:05:54;;;;;;;;;;;;;;;1.46;91.13;99581.87;1820891;77;20202;-41
2021/01/29 13:08:49;;;;;;;;;;;;;;;1.47;90.95;99577.14;1828637;77;20182;-40
2021/01/29 13:11:44;;;;;;;;;;;;;;;1.48;90.71;99585.33;1806223;77;20220;-40
2021/01/29 13:14:49;;;;;;;;;;;;;;;1.48;90.58;99577.58;1826054;77;20240;-41
2021/01/29 13:17:25;;;;;;;;;;;;;;;1.46;90.48;99571.11;1821545;77;20393;-41
2021/01/29 13:20:14;;;;;;;;;;;;;;;1.45;90.36;99564.64;1827550;77;20293;-41
2021/01/29 13:22:48;;;;;;;;;;;;;;;1.43;90.26;99576.28;1824459;77;20122;-41
2021/01/29 13:25:20;;;;;;;;;;;;;;;1.42;90.20;99568.10;1822113;77;20268;-42
2021/01/29 13:27:57;;;;;;;;;;;;;;;1.43;90.07;99560.80;1825926;77;20304;-40
2021/01/29 13:30:32;;;;;;;;;;;;;;;1.44;90.00;99566.40;1831397;76;20225;-41
2021/01/29 13:33:15;;;;;;;;;;;;;;;1.45;89.78;99556.90;1817835;77;20189;-41
2021/01/29 13:35:45;;;;;;;;;;;;;;;1.46;89.48;99561.20;1824778;76;20506;-42
2021/01/29 13:38:22;;;;;;;;;;;;;;;1.49;89.14;99558.64;1830565;77;20178;-43
2021/01/29 13:40:50;;;;;;;;;;;;;;;1.50;88.88;99548.33;1831184;76;20192;-42
2021/01/29 13:43:21;;;;;;;;;;;;;;;1.51;88.30;99546.14;1830487;76;20162;-43
2021/01/29 13:45:49;;;;;;;;;;;;;;;1.57;87.87;99550.48;1827740;76;20303;-44
2021/01/29 13:48:19;;;;;;;;;;;;;;;1.59;87.08;99549.61;1783405;76;20185;-43
2021/01/29 13:50:59;;;;;;;;;;;;;;;1.65;86.60;99548.74;1809696;77;20292;-48
2021/01/29 13:53:39;;;;;;;;;;;;;;;1.67;86.05;99549.61;1778478;76;20262;-43
2021/01/29 13:56:17;;;;;;;;;;;;;;;1.68;85.57;99546.17;1797207;76;20190;-44
2021/01/29 13:59:11;;;;;;;;;;;;;;;1.68;84.99;99544.02;1798033;77;20194;-42
2021/01/29 14:02:08;;;;;;;;;;;;;;;1.70;84.24;99544.47;1832212;76;20187;-41
2021/01/29 14:04:43;;;;;;;;;;;;;;;1.74;83.66;99541.02;1829150;76;20335;-43
2021/01/29 14:07:11;;;;;;;;;;;;;;;1.74;82.92;99543.59;1775291;77;20188;-47
2021/01/29 14:09:40;;;;;;;;;;;;;;;1.78;82.17;99540.14;1782137;78;20141;-44
2021/01/29 14:12:31;;;;;;;;;;;;;;;1.80;82.04;99538.42;1756360;78;20156;-43
2021/01/29 14:15:24;;;;;;;;;;;;;;;1.81;81.96;99541.87;1830942;76;20182;-43
2021/01/29 14:17:57;;;;;;;;;;;;;;;1.80;81.98;99542.30;1800960;76;20174;-44
2021/01/29 14:20:42;;;;;;;;;;;;;;;1.78;82.00;99542.72;1801236;77;20388;-43
2021/01/29 14:26:55;;;;;;;;;;;;;;;1.86;81.65;99534.97;1900078;74;20193;-43